Roanoke, VA (24001)

10:42 AM EST on December 07, 2016 (GMT -0500)
East Gate | | Change Station

Elev 1033 ft 37.29 °N, 79.92 °W | Updated 50 seconds ago

Mostly Cloudy
Mostly Cloudy
48.4 °F
Feels Like 48 °F
N
0.9
Wind Variable Wind from NNE
Gusts 4.0 mph

Today
High -- | Low -- °F
--% Chance of Precip.
Yesterday
High -- | Low -- °F
Precip. -- in
Pressure 30.09 in
Visibility 10.0 miles
Clouds Mostly Cloudy 17000 ft
Windchill 48 °F
Dew Point 33 °F
Humidity 56%
Rainfall 0.00 in
Snow Depth Not available.
7:20 AM 5:02 PM
First Quarter, 53% visible
METAR KROA 071454Z 32006KT 10SM BKN170 08/M01 A3008 RMK AO2 SLP189 T00831011 53021
Pressure 30.09 in
Visibility 10.0 miles
Clouds Mostly Cloudy 17000 ft
Windchill 48 °F
Dew Point 33 °F
Humidity 56%
Rainfall 0.00 in
Snow Depth Not available.
7:20 AM 5:02 PM
First Quarter, 53% visible
METAR KROA 071454Z 32006KT 10SM BKN170 08/M01 A3008 RMK AO2 SLP189 T00831011 53021

10-Day Weather Forecast

Almanac

Astronomy

Dec. 07, 2016 Rise Set
Actual Time
Civil Twilight
Nautical Twilight
Astronomical Twilight
Moon
Length of Visible Light
Length of Day
Tomorrow will be .
, % of the Moon is Illuminated

Today's Extremes

State Highs State Lows

Community

WunderPhotos

Upload Photos

1,956,124 photos uploaded!

WunderBlog® & News

Nearby

Air Quality

  Air Quality AQ Index Pollutant
Not available.

Snow Depth

Station Depth Elevation

Earthquake Activity

City Distance Mag. Time & Date
Minimum magnitude displayed is 2.5.

Coastal Water Temperatures

Place Temperature

Stations

Nearby Weather Stations

Station Location Temp. Windchill Dew Point Humidity Wind Precip. Elev Updated Type
                   

Watches & Warnings

There are currently no watches in effect.